Muscle Shoals, Alabama
Current Conditions -  °F | °C
As of 6:53 AM on Thursday 18 Dec 2014 (Local Time) from KMSL Reporting Station
Overcast Overcast  
Wind Chill: 36°   Ceiling: 8000
Heat Index: 39°   Visibility: 9mi
Dew Point: 32°   Wind: 5mph
Humidity: 76%   Direction: 70°ENE
Pressure: 30.23"   Gusts: NA
Location:  34.74°N, 87.67°W
Report Text: KMSL 181253Z AUTO 07004KT 9SM SCT060 BKN080 OVC100 04/00 A3023 RMK AO2 RAE13 SLP237 P0000 T00390000
Loading
Personal Weather Stations






























Interactive Weather Map New forecast layout! Learn more

10-Day Weather Forecast

Advertisements
Track Severe Weather on mobile